sensor_id;sensor_type;location;lat;lon;timestamp;pressure;altitude;pressure_sealevel;temperature;humidity
64019;BME280;66942;52.138;5.216;2023-05-20T00:01:26;102594.0;;;19.39;42.28
64019;BME280;66942;52.138;5.216;2023-05-20T00:03:02;102593.0;;;19.45;42.43
64019;BME280;66942;52.138;5.216;2023-05-20T00:06:15;102592.0;;;19.43;42.96
64019;BME280;66942;52.138;5.216;2023-05-20T00:07:51;102591.00000000001;;;19.52;42.49
64019;BME280;66942;52.138;5.216;2023-05-20T00:09:27;102591.00000000001;;;19.34;42.4
64019;BME280;66942;52.138;5.216;2023-05-20T00:11:03;102588.00000000001;;;19.28;42.82
64019;BME280;66942;52.138;5.216;2023-05-20T00:14:16;102586.99999999999;;;19.22;42.95
64019;BME280;66942;52.138;5.216;2023-05-20T00:15:52;102590.00000000001;;;19.46;42.34
64019;BME280;66942;52.138;5.216;2023-05-20T00:17:29;102593.0;;;19.36;42.91
64019;BME280;66942;52.138;5.216;2023-05-20T00:20:42;102595.0;;;19.36;42.7
64019;BME280;66942;52.138;5.216;2023-05-20T00:22:18;102594.0;;;19.29;43.1
64019;BME280;66942;52.138;5.216;2023-05-20T00:23:54;102598.0;;;19.36;42.87
64019;BME280;66942;52.138;5.216;2023-05-20T00:27:06;102595.0;;;19.45;42.94
64019;BME280;66942;52.138;5.216;2023-05-20T00:28:43;102599.0;;;19.52;42.46
64019;BME280;66942;52.138;5.216;2023-05-20T00:30:19;102596.0;;;19.32;42.64
64019;BME280;66942;52.138;5.216;2023-05-20T00:33:31;102592.0;;;19.21;43.11
64019;BME280;66942;52.138;5.216;2023-05-20T00:35:08;102596.0;;;19.25;42.71
64019;BME280;66942;52.138;5.216;2023-05-20T00:36:44;102596.0;;;19.25;42.78
64019;BME280;66942;52.138;5.216;2023-05-20T00:38:20;102592.0;;;19.3;43.17
64019;BME280;66942;52.138;5.216;2023-05-20T00:41:32;102594.0;;;19.34;42.93
64019;BME280;66942;52.138;5.216;2023-05-20T00:43:08;102598.0;;;19.2;42.92
64019;BME280;66942;52.138;5.216;2023-05-20T00:44:44;102596.0;;;19.18;43.08
64019;BME280;66942;52.138;5.216;2023-05-20T00:47:59;102595.0;;;19.28;43.24
64019;BME280;66942;52.138;5.216;2023-05-20T00:49:36;102593.0;;;19.2;43.07
64019;BME280;66942;52.138;5.216;2023-05-20T00:51:13;102591.00000000001;;;19.3;43.16
64019;BME280;66942;52.138;5.216;2023-05-20T00:54:25;102592.0;;;19.11;43.64
64019;BME280;66942;52.138;5.216;2023-05-20T00:56:01;102584.99999999999;;;19.18;43.58
64019;BME280;66942;52.138;5.216;2023-05-20T00:57:38;102583.99999999999;;;19.25;43.23
64019;BME280;66942;52.138;5.216;2023-05-20T00:59:15;102579.0;;;19.31;43.15
64019;BME280;66942;52.138;5.216;2023-05-20T01:02:27;102575.0;;;19.34;43.17
64019;BME280;66942;52.138;5.216;2023-05-20T01:04:04;102576.0;;;19.02;43.57
64019;BME280;66942;52.138;5.216;2023-05-20T01:05:40;102570.0;;;19.07;44.09
64019;BME280;66942;52.138;5.216;2023-05-20T01:08:53;102573.0;;;18.95;44.23
64019;BME280;66942;52.138;5.216;2023-05-20T01:10:30;102572.0;;;18.87;43.93
64019;BME280;66942;52.138;5.216;2023-05-20T01:12:12;102566.00000000001;;;19.05;43.62
64019;BME280;66942;52.138;5.216;2023-05-20T01:13:54;102563.00000000001;;;19.0;44.1
64019;BME280;66942;52.138;5.216;2023-05-20T01:17:10;102566.00000000001;;;18.88;44.49
64019;BME280;66942;52.138;5.216;2023-05-20T01:18:48;102566.00000000001;;;19.02;43.92
64019;BME280;66942;52.138;5.216;2023-05-20T01:20:27;102564.00000000001;;;19.09;43.7
64019;BME280;66942;52.138;5.216;2023-05-20T01:23:43;102567.0;;;19.0;43.88
64019;BME280;66942;52.138;5.216;2023-05-20T01:25:19;102557.0;;;19.04;43.82
64019;BME280;66942;52.138;5.216;2023-05-20T01:26:56;102563.00000000001;;;19.2;43.73
64019;BME280;66942;52.138;5.216;2023-05-20T01:28:33;102558.0;;;19.03;43.74
64019;BME280;66942;52.138;5.216;2023-05-20T01:31:47;102557.0;;;18.91;44.03
64019;BME280;66942;52.138;5.216;2023-05-20T01:33:24;102553.0;;;18.68;44.93
64019;BME280;66942;52.138;5.216;2023-05-20T01:35:05;102548.0;;;18.72;44.78
64019;BME280;66942;52.138;5.216;2023-05-20T01:38:22;102549.0;;;18.93;44.39
64019;BME280;66942;52.138;5.216;2023-05-20T01:39:59;102546.0;;;18.81;44.54
64019;BME280;66942;52.138;5.216;2023-05-20T01:41:36;102542.0;;;18.86;44.67
64019;BME280;66942;52.138;5.216;2023-05-20T01:43:12;102541.00000000001;;;18.64;44.96
64019;BME280;66942;52.138;5.216;2023-05-20T01:46:26;102545.0;;;18.73;45.01
64019;BME280;66942;52.138;5.216;2023-05-20T01:48:02;102544.0;;;18.66;44.99
64019;BME280;66942;52.138;5.216;2023-05-20T01:49:38;102542.0;;;18.68;45.05
64019;BME280;66942;52.138;5.216;2023-05-20T01:52:50;102538.00000000001;;;18.89;44.61
64019;BME280;66942;52.138;5.216;2023-05-20T01:54:27;102541.00000000001;;;18.79;44.88
64019;BME280;66942;52.138;5.216;2023-05-20T01:56:04;102543.0;;;18.81;44.81
64019;BME280;66942;52.138;5.216;2023-05-20T01:59:16;102540.00000000001;;;18.61;45.46
64019;BME280;66942;52.138;5.216;2023-05-20T02:00:52;102542.0;;;18.66;45.44
64019;BME280;66942;52.138;5.216;2023-05-20T02:02:29;102542.0;;;18.66;45.33
64019;BME280;66942;52.138;5.216;2023-05-20T02:04:05;102540.00000000001;;;18.87;44.89
64019;BME280;66942;52.138;5.216;2023-05-20T02:07:17;102542.0;;;18.75;45.04
64019;BME280;66942;52.138;5.216;2023-05-20T02:08:54;102539.00000000001;;;18.57;45.55
64019;BME280;66942;52.138;5.216;2023-05-20T02:10:30;102541.00000000001;;;18.75;45.48
64019;BME280;66942;52.138;5.216;2023-05-20T02:13:44;102540.00000000001;;;18.77;45.11
64019;BME280;66942;52.138;5.216;2023-05-20T02:15:20;102533.99999999999;;;18.87;44.88
64019;BME280;66942;52.138;5.216;2023-05-20T02:16:56;102539.00000000001;;;18.77;45.43
64019;BME280;66942;52.138;5.216;2023-05-20T02:20:09;102539.00000000001;;;18.73;45.45
64019;BME280;66942;52.138;5.216;2023-05-20T02:21:46;102538.00000000001;;;18.96;44.76
64019;BME280;66942;52.138;5.216;2023-05-20T02:23:22;102540.00000000001;;;18.95;44.86
64019;BME280;66942;52.138;5.216;2023-05-20T02:24:58;102542.0;;;18.86;45.12
64019;BME280;66942;52.138;5.216;2023-05-20T02:28:10;102543.0;;;18.87;45.12
64019;BME280;66942;52.138;5.216;2023-05-20T02:29:47;102539.00000000001;;;18.46;45.92
64019;BME280;66942;52.138;5.216;2023-05-20T02:31:23;102539.00000000001;;;18.75;45.47
64019;BME280;66942;52.138;5.216;2023-05-20T02:34:35;102533.99999999999;;;18.66;45.5
64019;BME280;66942;52.138;5.216;2023-05-20T02:36:11;102533.0;;;18.82;45.13
64019;BME280;66942;52.138;5.216;2023-05-20T02:37:48;102527.0;;;18.84;45.04
64019;BME280;66942;52.138;5.216;2023-05-20T02:41:00;102529.0;;;18.91;45.12
64019;BME280;66942;52.138;5.216;2023-05-20T02:42:36;102529.0;;;18.78;45.08
64019;BME280;66942;52.138;5.216;2023-05-20T02:44:13;102522.0;;;18.68;45.4
64019;BME280;66942;52.138;5.216;2023-05-20T02:47:26;102525.0;;;18.78;45.33
64019;BME280;66942;52.138;5.216;2023-05-20T02:49:02;102525.0;;;18.63;45.85
64019;BME280;66942;52.138;5.216;2023-05-20T02:50:38;102524.0;;;18.7;45.58
64019;BME280;66942;52.138;5.216;2023-05-20T02:52:14;102526.0;;;18.77;45.36
64019;BME280;66942;52.138;5.216;2023-05-20T02:55:27;102519.0;;;18.71;45.56
64019;BME280;66942;52.138;5.216;2023-05-20T02:57:03;102521.0;;;18.7;45.79
64019;BME280;66942;52.138;5.216;2023-05-20T02:58:39;102519.0;;;18.75;45.62
64019;BME280;66942;52.138;5.216;2023-05-20T03:01:51;102517.0;;;18.79;45.1
64019;BME280;66942;52.138;5.216;2023-05-20T03:03:28;102517.0;;;18.61;45.68
64019;BME280;66942;52.138;5.216;2023-05-20T03:05:04;102523.0;;;18.59;45.81
64019;BME280;66942;52.138;5.216;2023-05-20T03:08:19;102524.0;;;18.52;45.92
64019;BME280;66942;52.138;5.216;2023-05-20T03:09:56;102519.0;;;18.52;46.15
64019;BME280;66942;52.138;5.216;2023-05-20T03:11:32;102521.0;;;18.18;46.63
64019;BME280;66942;52.138;5.216;2023-05-20T03:13:08;102525.0;;;18.55;45.92
64019;BME280;66942;52.138;5.216;2023-05-20T03:16:20;102524.0;;;18.5;46.0
64019;BME280;66942;52.138;5.216;2023-05-20T03:17:57;102522.0;;;18.43;46.38
64019;BME280;66942;52.138;5.216;2023-05-20T03:19:34;102521.0;;;18.46;46.18
64019;BME280;66942;52.138;5.216;2023-05-20T03:22:46;102522.0;;;18.31;46.79
64019;BME280;66942;52.138;5.216;2023-05-20T03:24:22;102522.0;;;18.04;47.06
64019;BME280;66942;52.138;5.216;2023-05-20T03:25:58;102530.0;;;18.18;47.02
64019;BME280;66942;52.138;5.216;2023-05-20T03:29:11;102528.0;;;17.8;47.82
64019;BME280;66942;52.138;5.216;2023-05-20T03:30:47;102529.0;;;17.91;47.23
64019;BME280;66942;52.138;5.216;2023-05-20T03:32:23;102526.0;;;17.95;47.51
64019;BME280;66942;52.138;5.216;2023-05-20T03:33:59;102531.0;;;17.73;47.73
64019;BME280;66942;52.138;5.216;2023-05-20T03:37:12;102530.0;;;18.0;47.29
64019;BME280;66942;52.138;5.216;2023-05-20T03:38:48;102526.0;;;17.8;47.55
64019;BME280;66942;52.138;5.216;2023-05-20T03:40:24;102529.0;;;17.73;47.82
64019;BME280;66942;52.138;5.216;2023-05-20T03:43:36;102528.0;;;17.66;48.0
64019;BME280;66942;52.138;5.216;2023-05-20T03:45:13;102528.0;;;17.61;47.98
64019;BME280;66942;52.138;5.216;2023-05-20T03:46:49;102521.0;;;17.64;48.11
64019;BME280;66942;52.138;5.216;2023-05-20T03:50:01;102522.0;;;17.41;48.6
64019;BME280;66942;52.138;5.216;2023-05-20T03:51:37;102523.0;;;17.29;49.22
64019;BME280;66942;52.138;5.216;2023-05-20T03:53:13;102528.0;;;17.45;48.56
64019;BME280;66942;52.138;5.216;2023-05-20T03:56:26;102531.0;;;17.52;48.8
64019;BME280;66942;52.138;5.216;2023-05-20T03:58:02;102528.0;;;17.52;48.78
64019;BME280;66942;52.138;5.216;2023-05-20T03:59:38;102529.0;;;17.52;48.77
64019;BME280;66942;52.138;5.216;2023-05-20T04:01:14;102525.0;;;17.75;48.15
64019;BME280;66942;52.138;5.216;2023-05-20T04:04:27;102521.0;;;18.09;47.4
64019;BME280;66942;52.138;5.216;2023-05-20T04:06:03;102517.0;;;17.8;48.21
64019;BME280;66942;52.138;5.216;2023-05-20T04:07:39;102517.0;;;17.91;48.11
64019;BME280;66942;52.138;5.216;2023-05-20T04:10:54;102517.0;;;17.8;48.04
64019;BME280;66942;52.138;5.216;2023-05-20T04:12:31;102517.0;;;17.84;48.27
64019;BME280;66942;52.138;5.216;2023-05-20T04:14:07;102518.0;;;18.02;47.68
64019;BME280;66942;52.138;5.216;2023-05-20T04:17:19;102518.0;;;17.89;48.04
64019;BME280;66942;52.138;5.216;2023-05-20T04:18:56;102518.0;;;17.91;48.35
64019;BME280;66942;52.138;5.216;2023-05-20T04:20:32;102520.0;;;17.93;47.97
64019;BME280;66942;52.138;5.216;2023-05-20T04:22:08;102517.0;;;18.2;47.6
64019;BME280;66942;52.138;5.216;2023-05-20T04:25:20;102522.0;;;18.11;47.74
64019;BME280;66942;52.138;5.216;2023-05-20T04:26:56;102525.0;;;18.2;47.79
64019;BME280;66942;52.138;5.216;2023-05-20T04:28:33;102518.0;;;18.27;47.52
64019;BME280;66942;52.138;5.216;2023-05-20T04:31:46;102523.0;;;18.56;46.86
64019;BME280;66942;52.138;5.216;2023-05-20T04:33:22;102520.0;;;18.43;47.15
64019;BME280;66942;52.138;5.216;2023-05-20T04:34:58;102525.0;;;18.59;46.71
64019;BME280;66942;52.138;5.216;2023-05-20T04:38:11;102527.0;;;18.68;46.88
64019;BME280;66942;52.138;5.216;2023-05-20T04:39:47;102525.0;;;18.77;46.58
64019;BME280;66942;52.138;5.216;2023-05-20T04:41:23;102524.0;;;18.82;46.42
64019;BME280;66942;52.138;5.216;2023-05-20T04:44:35;102521.0;;;18.98;46.13
64019;BME280;66942;52.138;5.216;2023-05-20T04:46:12;102525.0;;;18.97;46.52
64019;BME280;66942;52.138;5.216;2023-05-20T04:47:48;102527.0;;;19.0;46.58
64019;BME280;66942;52.138;5.216;2023-05-20T04:49:24;102533.0;;;19.07;45.87
64019;BME280;66942;52.138;5.216;2023-05-20T04:52:38;102531.0;;;19.12;45.82
64019;BME280;66942;52.138;5.216;2023-05-20T04:54:15;102533.0;;;19.21;45.72
64019;BME280;66942;52.138;5.216;2023-05-20T04:55:53;102532.0;;;19.34;45.34
64019;BME280;66942;52.138;5.216;2023-05-20T04:59:05;102529.0;;;19.34;45.65
64019;BME280;66942;52.138;5.216;2023-05-20T05:00:42;102532.0;;;19.47;45.07
64019;BME280;66942;52.138;5.216;2023-05-20T05:02:19;102533.99999999999;;;19.41;45.3
64019;BME280;66942;52.138;5.216;2023-05-20T05:05:31;102529.0;;;19.37;45.31
64019;BME280;66942;52.138;5.216;2023-05-20T05:07:07;102533.99999999999;;;19.71;44.77
64019;BME280;66942;52.138;5.216;2023-05-20T05:08:43;102528.0;;;19.64;44.84
64019;BME280;66942;52.138;5.216;2023-05-20T05:10:20;102529.0;;;19.61;45.27
64019;BME280;66942;52.138;5.216;2023-05-20T05:13:32;102525.0;;;19.68;44.5
64019;BME280;66942;52.138;5.216;2023-05-20T05:15:09;102532.0;;;19.75;44.39
64019;BME280;66942;52.138;5.216;2023-05-20T05:16:45;102530.0;;;19.97;45.2
64019;BME280;66942;52.138;5.216;2023-05-20T05:19:58;102527.0;;;20.27;43.96
64019;BME280;66942;52.138;5.216;2023-05-20T05:21:34;102528.0;;;20.27;43.98
64019;BME280;66942;52.138;5.216;2023-05-20T05:23:10;102527.0;;;20.51;43.2
64019;BME280;66942;52.138;5.216;2023-05-20T05:26:22;102524.0;;;20.72;43.38
64019;BME280;66942;52.138;5.216;2023-05-20T05:27:59;102522.0;;;20.62;42.96
64019;BME280;66942;52.138;5.216;2023-05-20T05:29:35;102516.00000000001;;;20.87;42.36
64019;BME280;66942;52.138;5.216;2023-05-20T05:31:11;102516.00000000001;;;21.07;41.9
64019;BME280;66942;52.138;5.216;2023-05-20T05:34:23;102509.99999999999;;;21.24;41.57
64019;BME280;66942;52.138;5.216;2023-05-20T05:36:00;102508.0;;;21.45;42.03
64019;BME280;66942;52.138;5.216;2023-05-20T05:37:36;102504.0;;;21.26;41.15
64019;BME280;66942;52.138;5.216;2023-05-20T05:40:48;102505.0;;;21.41;41.28
64019;BME280;66942;52.138;5.216;2023-05-20T05:42:24;102506.0;;;21.48;40.82
64019;BME280;66942;52.138;5.216;2023-05-20T05:44:00;102501.0;;;21.41;41.66
64019;BME280;66942;52.138;5.216;2023-05-20T05:47:14;102494.0;;;21.74;40.35
64019;BME280;66942;52.138;5.216;2023-05-20T05:48:50;102501.0;;;21.63;41.05
64019;BME280;66942;52.138;5.216;2023-05-20T05:50:26;102500.0;;;21.54;40.64
64019;BME280;66942;52.138;5.216;2023-05-20T05:53:39;102506.0;;;21.52;40.81
64019;BME280;66942;52.138;5.216;2023-05-20T05:55:15;102501.0;;;21.37;41.42
64019;BME280;66942;52.138;5.216;2023-05-20T05:56:51;102503.0;;;21.63;40.99
64019;BME280;66942;52.138;5.216;2023-05-20T05:58:28;102508.0;;;21.69;40.78
64019;BME280;66942;52.138;5.216;2023-05-20T06:01:43;102504.0;;;21.63;40.33
64019;BME280;66942;52.138;5.216;2023-05-20T06:03:19;102501.0;;;21.77;40.21
64019;BME280;66942;52.138;5.216;2023-05-20T06:04:55;102498.0;;;22.06;40.03
64019;BME280;66942;52.138;5.216;2023-05-20T06:08:08;102502.0;;;21.58;40.33
64019;BME280;66942;52.138;5.216;2023-05-20T06:09:45;102497.0;;;21.07;41.27
64019;BME280;66942;52.138;5.216;2023-05-20T06:11:21;102497.0;;;21.93;40.26
64019;BME280;66942;52.138;5.216;2023-05-20T06:14:33;102497.0;;;22.19;39.67
64019;BME280;66942;52.138;5.216;2023-05-20T06:16:09;102501.0;;;21.81;40.31
64019;BME280;66942;52.138;5.216;2023-05-20T06:17:46;102499.0;;;22.05;39.81
64019;BME280;66942;52.138;5.216;2023-05-20T06:19:22;102497.0;;;21.91;39.99
64019;BME280;66942;52.138;5.216;2023-05-20T06:22:35;102497.0;;;21.98;39.44
64019;BME280;66942;52.138;5.216;2023-05-20T06:24:11;102495.0;;;21.88;39.81
64019;BME280;66942;52.138;5.216;2023-05-20T06:25:48;102497.0;;;21.98;39.85
64019;BME280;66942;52.138;5.216;2023-05-20T06:29:01;102497.0;;;22.18;39.85
64019;BME280;66942;52.138;5.216;2023-05-20T06:30:37;102500.0;;;21.71;39.96
64019;BME280;66942;52.138;5.216;2023-05-20T06:32:13;102499.0;;;21.56;40.49
64019;BME280;66942;52.138;5.216;2023-05-20T06:35:26;102506.0;;;22.2;39.39
64019;BME280;66942;52.138;5.216;2023-05-20T06:37:02;102507.0;;;22.45;38.9
64019;BME280;66942;52.138;5.216;2023-05-20T06:38:38;102503.0;;;21.67;39.6
64019;BME280;66942;52.138;5.216;2023-05-20T06:40:14;102501.0;;;22.08;39.28
64019;BME280;66942;52.138;5.216;2023-05-20T06:43:26;102500.0;;;22.48;39.18
64019;BME280;66942;52.138;5.216;2023-05-20T06:45:04;102500.0;;;22.35;39.14
64019;BME280;66942;52.138;5.216;2023-05-20T06:46:41;102498.0;;;22.74;38.6
64019;BME280;66942;52.138;5.216;2023-05-20T06:49:53;102497.0;;;22.86;38.81
64019;BME280;66942;52.138;5.216;2023-05-20T06:51:29;102493.0;;;22.59;38.58
64019;BME280;66942;52.138;5.216;2023-05-20T06:53:05;102484.99999999999;;;22.76;38.4
64019;BME280;66942;52.138;5.216;2023-05-20T06:56:18;102479.0;;;22.57;38.49
64019;BME280;66942;52.138;5.216;2023-05-20T06:57:54;102475.0;;;22.92;39.11
64019;BME280;66942;52.138;5.216;2023-05-20T06:59:30;102483.99999999999;;;22.73;38.81
64019;BME280;66942;52.138;5.216;2023-05-20T07:01:06;102478.0;;;22.79;38.79
64019;BME280;66942;52.138;5.216;2023-05-20T07:04:19;102477.0;;;22.74;38.67
64019;BME280;66942;52.138;5.216;2023-05-20T07:05:55;102475.0;;;23.12;37.6
64019;BME280;66942;52.138;5.216;2023-05-20T07:07:31;102477.0;;;23.32;37.89
64019;BME280;66942;52.138;5.216;2023-05-20T07:10:43;102470.0;;;23.23;37.64
64019;BME280;66942;52.138;5.216;2023-05-20T07:12:20;102474.0;;;23.28;37.56
64019;BME280;66942;52.138;5.216;2023-05-20T07:13:56;102471.0;;;23.3;37.51
64019;BME280;66942;52.138;5.216;2023-05-20T07:17:10;102474.0;;;23.58;36.53
64019;BME280;66942;52.138;5.216;2023-05-20T07:18:46;102476.0;;;23.48;36.62
64019;BME280;66942;52.138;5.216;2023-05-20T07:20:22;102475.0;;;23.69;36.36
64019;BME280;66942;52.138;5.216;2023-05-20T07:23:35;102470.0;;;23.8;36.46
64019;BME280;66942;52.138;5.216;2023-05-20T07:25:11;102469.0;;;23.98;36.21
64019;BME280;66942;52.138;5.216;2023-05-20T07:26:47;102467.0;;;23.73;36.0
64019;BME280;66942;52.138;5.216;2023-05-20T07:28:23;102467.0;;;23.86;35.81
64019;BME280;66942;52.138;5.216;2023-05-20T07:31:35;102461.99999999999;;;24.13;35.22
64019;BME280;66942;52.138;5.216;2023-05-20T07:33:12;102456.0;;;24.36;35.21
64019;BME280;66942;52.138;5.216;2023-05-20T07:34:48;102458.99999999999;;;24.02;36.0
64019;BME280;66942;52.138;5.216;2023-05-20T07:38:01;102455.0;;;24.68;35.76
64019;BME280;66942;52.138;5.216;2023-05-20T07:39:37;102449.0;;;24.74;35.06
64019;BME280;66942;52.138;5.216;2023-05-20T07:41:14;102444.0;;;24.79;35.35
64019;BME280;66942;52.138;5.216;2023-05-20T07:44:26;102445.0;;;25.31;34.51
64019;BME280;66942;52.138;5.216;2023-05-20T07:46:02;102447.0;;;25.1;34.1
64019;BME280;66942;52.138;5.216;2023-05-20T07:47:39;102447.0;;;25.55;33.74
64019;BME280;66942;52.138;5.216;2023-05-20T07:49:15;102442.0;;;25.57;33.12
64019;BME280;66942;52.138;5.216;2023-05-20T07:52:28;102442.0;;;25.85;33.31
64019;BME280;66942;52.138;5.216;2023-05-20T07:54:04;102436.99999999999;;;26.24;33.04
64019;BME280;66942;52.138;5.216;2023-05-20T07:55:41;102432.0;;;26.63;31.65
64019;BME280;66942;52.138;5.216;2023-05-20T07:58:55;102432.0;;;26.34;31.59
64019;BME280;66942;52.138;5.216;2023-05-20T08:00:32;102428.0;;;26.73;32.0
64019;BME280;66942;52.138;5.216;2023-05-20T08:02:08;102430.0;;;27.25;32.8
64019;BME280;66942;52.138;5.216;2023-05-20T08:05:20;102421.0;;;27.3;30.33
64019;BME280;66942;52.138;5.216;2023-05-20T08:06:56;102422.0;;;27.42;30.96
64019;BME280;66942;52.138;5.216;2023-05-20T08:08:33;102430.0;;;27.58;29.27
64019;BME280;66942;52.138;5.216;2023-05-20T08:10:09;102428.0;;;27.35;29.56
64019;BME280;66942;52.138;5.216;2023-05-20T08:13:22;102419.0;;;27.21;30.09
64019;BME280;66942;52.138;5.216;2023-05-20T08:15:00;102428.0;;;27.86;29.65
64019;BME280;66942;52.138;5.216;2023-05-20T08:16:36;102425.0;;;27.69;29.92
64019;BME280;66942;52.138;5.216;2023-05-20T08:19:49;102416.00000000001;;;27.3;29.88
64019;BME280;66942;52.138;5.216;2023-05-20T08:21:25;102427.0;;;27.6;30.03
64019;BME280;66942;52.138;5.216;2023-05-20T08:23:01;102424.0;;;27.51;29.55
64019;BME280;66942;52.138;5.216;2023-05-20T08:26:13;102423.0;;;27.88;28.76
64019;BME280;66942;52.138;5.216;2023-05-20T08:27:50;102428.0;;;27.56;29.42
64019;BME280;66942;52.138;5.216;2023-05-20T08:29:26;102423.0;;;27.17;29.47
64019;BME280;66942;52.138;5.216;2023-05-20T08:32:38;102414.00000000001;;;27.0;30.33
64019;BME280;66942;52.138;5.216;2023-05-20T08:34:14;102421.0;;;27.26;29.97
64019;BME280;66942;52.138;5.216;2023-05-20T08:35:50;102417.0;;;27.31;30.29
64019;BME280;66942;52.138;5.216;2023-05-20T08:37:27;102417.0;;;27.45;29.51
64019;BME280;66942;52.138;5.216;2023-05-20T08:40:39;102407.0;;;27.23;31.11
64019;BME280;66942;52.138;5.216;2023-05-20T08:42:20;102409.99999999999;;;26.85;30.89
64019;BME280;66942;52.138;5.216;2023-05-20T08:43:58;102401.0;;;26.91;29.7
64019;BME280;66942;52.138;5.216;2023-05-20T08:47:13;102405.0;;;26.5;31.21
64019;BME280;66942;52.138;5.216;2023-05-20T08:48:49;102411.99999999999;;;26.79;30.59
64019;BME280;66942;52.138;5.216;2023-05-20T08:50:25;102398.0;;;26.79;29.1
64019;BME280;66942;52.138;5.216;2023-05-20T08:52:03;102403.0;;;26.78;29.25
64019;BME280;66942;52.138;5.216;2023-05-20T08:55:17;102397.0;;;26.32;29.07
64019;BME280;66942;52.138;5.216;2023-05-20T08:57:01;102387.0;;;26.58;29.18
64019;BME280;66942;52.138;5.216;2023-05-20T08:58:37;102376.0;;;26.03;29.64
64019;BME280;66942;52.138;5.216;2023-05-20T09:01:50;102386.0;;;25.95;29.63
64019;BME280;66942;52.138;5.216;2023-05-20T09:03:27;102381.0;;;26.55;29.12
64019;BME280;66942;52.138;5.216;2023-05-20T09:05:03;102383.0;;;26.68;29.85
64019;BME280;66942;52.138;5.216;2023-05-20T09:06:42;102384.0;;;26.47;30.05
64019;BME280;66942;52.138;5.216;2023-05-20T09:09:59;102371.0;;;26.27;28.85
64019;BME280;66942;52.138;5.216;2023-05-20T09:11:35;102380.0;;;26.8;29.14
64019;BME280;66942;52.138;5.216;2023-05-20T09:13:12;102380.0;;;26.48;29.35
64019;BME280;66942;52.138;5.216;2023-05-20T09:16:24;102385.0;;;26.88;30.06
64019;BME280;66942;52.138;5.216;2023-05-20T09:18:01;102370.0;;;26.26;28.26
64019;BME280;66942;52.138;5.216;2023-05-20T09:19:37;102375.0;;;26.82;28.68
64019;BME280;66942;52.138;5.216;2023-05-20T09:22:50;102370.0;;;26.6;28.42
64019;BME280;66942;52.138;5.216;2023-05-20T09:24:27;102369.0;;;26.27;28.06
64019;BME280;66942;52.138;5.216;2023-05-20T09:26:03;102371.0;;;26.45;27.87
64019;BME280;66942;52.138;5.216;2023-05-20T09:27:39;102363.0;;;26.27;28.07
64019;BME280;66942;52.138;5.216;2023-05-20T09:30:56;102357.0;;;26.23;28.24
64019;BME280;66942;52.138;5.216;2023-05-20T09:32:33;102360.0;;;26.13;28.37
64019;BME280;66942;52.138;5.216;2023-05-20T09:34:09;102356.0;;;25.96;30.37
64019;BME280;66942;52.138;5.216;2023-05-20T09:37:25;102353.0;;;26.23;29.0
64019;BME280;66942;52.138;5.216;2023-05-20T09:39:02;102355.0;;;26.31;28.88
64019;BME280;66942;52.138;5.216;2023-05-20T09:40:41;102339.0;;;26.19;30.27
64019;BME280;66942;52.138;5.216;2023-05-20T09:42:21;102349.0;;;26.16;27.99
64019;BME280;66942;52.138;5.216;2023-05-20T09:45:34;102345.0;;;26.7;28.55
64019;BME280;66942;52.138;5.216;2023-05-20T09:47:14;102343.0;;;26.86;28.88
64019;BME280;66942;52.138;5.216;2023-05-20T09:48:51;102343.0;;;26.96;28.05
64019;BME280;66942;52.138;5.216;2023-05-20T09:52:05;102341.0;;;27.4;28.73
64019;BME280;66942;52.138;5.216;2023-05-20T09:53:42;102347.0;;;27.69;29.77
64019;BME280;66942;52.138;5.216;2023-05-20T09:55:19;102349.0;;;27.94;28.45
64019;BME280;66942;52.138;5.216;2023-05-20T09:57:02;102342.0;;;27.47;29.27
64019;BME280;66942;52.138;5.216;2023-05-20T10:00:16;102344.0;;;27.45;29.84
64019;BME280;66942;52.138;5.216;2023-05-20T10:01:52;102336.0;;;28.08;27.02
64019;BME280;66942;52.138;5.216;2023-05-20T10:03:28;102338.0;;;27.66;26.12
64019;BME280;66942;52.138;5.216;2023-05-20T10:07:10;102336.0;;;27.86;26.8
64019;BME280;66942;52.138;5.216;2023-05-20T10:09:05;102334.0;;;27.85;26.9
64019;BME280;66942;52.138;5.216;2023-05-20T10:10:52;102321.0;;;27.92;26.37
64019;BME280;66942;52.138;5.216;2023-05-20T10:12:44;102312.0;;;28.27;25.95
64019;BME280;66942;52.138;5.216;2023-05-20T10:14:37;102324.0;;;27.99;27.73
64019;BME280;66942;52.138;5.216;2023-05-20T10:16:23;102325.0;;;27.44;26.7
64019;BME280;66942;52.138;5.216;2023-05-20T10:18:09;102320.0;;;27.6;25.77
64019;BME280;66942;52.138;5.216;2023-05-20T10:19:56;102317.0;;;27.51;26.43
64019;BME280;66942;52.138;5.216;2023-05-20T10:23:19;102325.0;;;27.62;25.16
64019;BME280;66942;52.138;5.216;2023-05-20T10:24:58;102305.0;;;27.63;25.6
64019;BME280;66942;52.138;5.216;2023-05-20T10:26:35;102306.0;;;28.06;25.51
64019;BME280;66942;52.138;5.216;2023-05-20T10:29:50;102295.0;;;28.53;24.77
64019;BME280;66942;52.138;5.216;2023-05-20T10:31:27;102294.0;;;28.49;24.81
64019;BME280;66942;52.138;5.216;2023-05-20T10:33:04;102294.0;;;28.51;25.17
64019;BME280;66942;52.138;5.216;2023-05-20T10:34:45;102293.0;;;27.7;24.69
64019;BME280;66942;52.138;5.216;2023-05-20T10:38:07;102295.0;;;28.2;25.61
64019;BME280;66942;52.138;5.216;2023-05-20T10:39:44;102289.0;;;28.02;24.38
64019;BME280;66942;52.138;5.216;2023-05-20T10:41:23;102292.0;;;27.94;24.25
64019;BME280;66942;52.138;5.216;2023-05-20T10:43:08;102292.0;;;27.79;24.07
64019;BME280;66942;52.138;5.216;2023-05-20T10:46:22;102276.0;;;28.0;24.44
64019;BME280;66942;52.138;5.216;2023-05-20T10:47:58;102280.0;;;27.88;26.54
64019;BME280;66942;52.138;5.216;2023-05-20T10:49:35;102281.0;;;28.39;24.93
64019;BME280;66942;52.138;5.216;2023-05-20T10:51:14;102280.0;;;28.55;25.57
64019;BME280;66942;52.138;5.216;2023-05-20T10:54:26;102288.0;;;28.27;26.29